Time;durP1;ratioP1;P1;durP2;ratioP2;P2;SDS_P1;SDS_P2;PMS_P1;PMS_P2;Temp;Humidity;BMP_temperature;BMP_pressure;BME280_temperature;BME280_humidity;BME280_pressure;Samples;Min_cycle;Max_cycle;Signal;HPM_P1;HPM_P2
2023/12/12 05:30:55;;;;;;;0.10;0.10;;;13.30;90.00;;;;;;5621709;23;20169;-79
2023/12/12 05:33:21;;;;;;;0.10;0.10;;;13.30;90.00;;;;;;4920720;29;20056;-78
2023/12/12 05:35:48;;;;;;;0.10;0.10;;;13.40;90.20;;;;;;4924671;29;20024;-80
2023/12/12 05:38:15;;;;;;;0.10;0.10;;;13.50;90.10;;;;;;4901638;29;20021;-77
2023/12/12 05:40:41;;;;;;;0.10;0.10;;;13.40;90.00;;;;;;4908340;29;20970;-77
2023/12/12 05:43:07;;;;;;;0.10;0.10;;;13.40;90.00;;;;;;4913077;29;20087;-77
2023/12/12 05:45:32;;;;;;;0.10;0.10;;;13.40;90.00;;;;;;4899116;29;20037;-79
2023/12/12 05:47:58;;;;;;;0.10;0.10;;;13.30;89.70;;;;;;4900041;29;20025;-77
2023/12/12 05:50:24;;;;;;;0.10;0.10;;;13.30;89.90;;;;;;4927984;29;20067;-77
2023/12/12 05:52:52;;;;;;;0.03;0.03;;;13.30;90.00;;;;;;4900061;29;20029;-79
2023/12/12 05:55:18;;;;;;;0.10;0.10;;;13.20;89.90;;;;;;4900315;29;20037;-78
2023/12/12 05:57:43;;;;;;;0.10;0.10;;;13.10;90.10;;;;;;4899594;29;20060;-82
2023/12/12 06:00:09;;;;;;;0.10;0.10;;;13.10;90.10;;;;;;4899558;29;20041;-85
2023/12/12 06:02:35;;;;;;;0.10;0.10;;;13.10;90.10;;;;;;4900547;29;20027;-80
2023/12/12 06:05:01;;;;;;;0.10;0.10;;;13.20;90.20;;;;;;4911215;29;20033;-76
2023/12/12 06:07:26;;;;;;;0.10;0.10;;;13.20;90.10;;;;;;4930598;29;20028;-75
2023/12/12 06:09:53;;;;;;;0.10;0.10;;;13.20;90.00;;;;;;4920170;29;20032;-76
2023/12/12 06:12:18;;;;;;;0.05;0.05;;;13.20;89.90;;;;;;4899768;29;20086;-77
2023/12/12 06:14:46;;;;;;;0.10;0.10;;;13.20;89.90;;;;;;4901114;29;20024;-78
2023/12/12 06:17:12;;;;;;;0.10;0.10;;;13.30;89.80;;;;;;4898811;29;20456;-78
2023/12/12 06:19:38;;;;;;;0.10;0.10;;;13.30;89.70;;;;;;4899838;29;20033;-78
2023/12/12 06:22:03;;;;;;;0.10;0.10;;;13.50;89.70;;;;;;4899667;29;20068;-77
2023/12/12 06:24:29;;;;;;;0.10;0.10;;;13.40;89.60;;;;;;4899622;29;20445;-78
2023/12/12 06:26:55;;;;;;;0.10;0.10;;;13.40;89.40;;;;;;4899698;29;20024;-81
2023/12/12 06:29:20;;;;;;;0.10;0.10;;;13.30;89.50;;;;;;4899917;29;20017;-78
2023/12/12 06:31:46;;;;;;;0.10;0.10;;;13.30;89.50;;;;;;4914166;29;20072;-88
2023/12/12 06:34:12;;;;;;;0.10;0.10;;;13.30;89.60;;;;;;4918028;29;20396;-86
2023/12/12 06:36:38;;;;;;;0.10;0.10;;;13.30;89.60;;;;;;4918131;29;20585;-86
2023/12/12 06:39:04;;;;;;;0.10;0.10;;;13.30;89.50;;;;;;4901455;29;20070;-87
2023/12/12 06:41:29;;;;;;;0.10;0.10;;;13.30;89.40;;;;;;4900493;29;20024;-88
2023/12/12 06:43:55;;;;;;;0.10;0.10;;;13.30;89.30;;;;;;4898854;29;20028;-87
2023/12/12 06:46:21;;;;;;;0.10;0.10;;;13.30;89.50;;;;;;4902397;29;20448;-87
2023/12/12 06:48:47;;;;;;;0.10;0.10;;;13.20;89.40;;;;;;4903306;29;20064;-89
2023/12/12 06:51:13;;;;;;;0.10;0.10;;;13.20;89.50;;;;;;4921586;29;20024;-88
2023/12/12 06:53:38;;;;;;;0.10;0.10;;;13.20;89.50;;;;;;4920855;29;20032;-87
2023/12/12 06:56:05;;;;;;;0.10;0.10;;;13.20;89.60;;;;;;4904005;29;20107;-86
2023/12/12 06:58:31;;;;;;;0.10;0.10;;;13.20;89.50;;;;;;4922091;29;20039;-87
2023/12/12 07:00:57;;;;;;;0.10;0.10;;;13.10;89.60;;;;;;4921735;29;20407;-87
2023/12/12 07:03:22;;;;;;;0.10;0.10;;;13.10;89.70;;;;;;4904724;29;20091;-86
2023/12/12 07:05:52;;;;;;;0.20;0.20;;;13.00;89.90;;;;;;4909633;29;20029;-86
2023/12/12 07:08:18;;;;;;;0.10;0.10;;;13.00;89.90;;;;;;4903697;29;20029;-87
2023/12/12 07:10:45;;;;;;;0.10;0.10;;;13.10;89.90;;;;;;4907518;29;20036;-86
2023/12/12 07:13:11;;;;;;;0.10;0.10;;;13.10;89.80;;;;;;4920484;29;20171;-86
2023/12/12 07:15:37;;;;;;;0.10;0.10;;;13.10;89.70;;;;;;4907208;29;20068;-86
2023/12/12 07:18:07;;;;;;;0.10;0.10;;;13.10;89.70;;;;;;4901135;29;20032;-86
2023/12/12 07:20:33;;;;;;;0.10;0.10;;;13.10;89.70;;;;;;4901007;29;20039;-86
2023/12/12 07:22:59;;;;;;;0.10;0.10;;;13.00;89.80;;;;;;4903432;29;20032;-87
2023/12/12 07:25:24;;;;;;;0.10;0.10;;;13.00;89.90;;;;;;4903347;29;20033;-86
2023/12/12 07:27:50;;;;;;;0.10;0.10;;;13.00;89.80;;;;;;4886523;29;20528;-86
2023/12/12 07:30:16;;;;;;;0.10;0.10;;;13.00;89.80;;;;;;4902252;29;20032;-86
2023/12/12 07:32:42;;;;;;;0.10;0.10;;;13.00;89.80;;;;;;4903579;29;20044;-86
2023/12/12 07:35:08;;;;;;;0.10;0.10;;;13.00;89.70;;;;;;4921505;29;20020;-86
2023/12/12 07:37:34;;;;;;;0.10;0.10;;;13.10;89.70;;;;;;4902922;29;20040;-86
2023/12/12 07:39:59;;;;;;;0.10;0.10;;;13.10;89.60;;;;;;4909822;29;20028;-86
2023/12/12 07:42:25;;;;;;;0.20;0.20;;;13.00;89.60;;;;;;4903237;29;20032;-86
2023/12/12 07:44:51;;;;;;;0.10;0.10;;;13.00;89.50;;;;;;4886826;29;20039;-86
2023/12/12 07:47:17;;;;;;;0.10;0.10;;;12.90;89.50;;;;;;4901828;29;20495;-87
2023/12/12 07:49:42;;;;;;;0.10;0.10;;;12.90;89.50;;;;;;4899882;29;20032;-87
2023/12/12 07:52:08;;;;;;;0.10;0.10;;;12.90;89.50;;;;;;4901062;29;20106;-87
2023/12/12 07:54:33;;;;;;;0.10;0.10;;;12.90;89.60;;;;;;4900904;29;20412;-87
2023/12/12 07:56:59;;;;;;;0.10;0.10;;;12.80;89.30;;;;;;4901342;29;20033;-87
2023/12/12 07:59:25;;;;;;;0.20;0.20;;;12.80;89.50;;;;;;4902120;29;20033;-87
2023/12/12 08:01:50;;;;;;;0.10;0.10;;;12.80;89.30;;;;;;4901867;29;20036;-87
2023/12/12 08:04:16;;;;;;;0.10;0.10;;;12.80;89.30;;;;;;4904069;29;20523;-87
2023/12/12 08:06:42;;;;;;;0.10;0.10;;;12.80;89.30;;;;;;4903983;29;20028;-87
2023/12/12 08:09:08;;;;;;;0.10;0.10;;;12.90;89.30;;;;;;4914203;29;20028;-87
2023/12/12 08:11:33;;;;;;;0.10;0.10;;;12.80;89.20;;;;;;4885402;29;20039;-86
2023/12/12 08:14:00;;;;;;;0.10;0.10;;;12.90;89.20;;;;;;4901733;29;20094;-87
2023/12/12 08:16:25;;;;;;;0.00;0.00;;;12.90;89.10;;;;;;4900564;29;20405;-86
2023/12/12 08:18:51;;;;;;;0.20;0.20;;;12.90;89.30;;;;;;4884706;29;20040;-86
2023/12/12 08:21:20;;;;;;;0.10;0.10;;;12.90;89.10;;;;;;4901745;29;20490;-87
2023/12/12 08:23:48;;;;;;;0.10;0.10;;;13.00;89.10;;;;;;4885031;29;20024;-87
2023/12/12 08:26:14;;;;;;;0.10;0.10;;;13.00;89.00;;;;;;4902214;29;20037;-87
2023/12/12 08:28:40;;;;;;;0.10;0.10;;;13.00;89.00;;;;;;4885304;29;20119;-86
2023/12/12 08:31:05;;;;;;;0.10;0.10;;;13.00;88.90;;;;;;4893585;29;20080;-87
2023/12/12 08:33:33;;;;;;;0.10;0.10;;;13.00;89.00;;;;;;4907804;29;20029;-86
2023/12/12 08:35:59;;;;;;;0.10;0.10;;;13.00;88.90;;;;;;4919858;29;20032;-86
2023/12/12 08:38:25;;;;;;;0.10;0.10;;;13.00;89.00;;;;;;4903669;29;20037;-87
2023/12/12 08:40:50;;;;;;;0.10;0.10;;;13.00;88.90;;;;;;4914732;29;20040;-87
2023/12/12 08:43:16;;;;;;;0.10;0.10;;;13.10;88.80;;;;;;4901041;29;20033;-87
2023/12/12 08:45:44;;;;;;;0.10;0.10;;;13.10;88.80;;;;;;4904680;29;20063;-88
2023/12/12 08:48:09;;;;;;;0.10;0.10;;;13.00;88.70;;;;;;4919891;29;20423;-87
2023/12/12 08:50:35;;;;;;;0.10;0.10;;;13.10;88.80;;;;;;4921153;29;20138;-87
2023/12/12 08:53:03;;;;;;;0.10;0.10;;;13.10;88.70;;;;;;4916342;29;20084;-87
2023/12/12 08:55:29;;;;;;;0.10;0.10;;;13.20;88.70;;;;;;4901136;29;20037;-87
2023/12/12 08:57:54;;;;;;;0.20;0.20;;;13.10;88.60;;;;;;4900802;29;20051;-87
2023/12/12 09:00:20;;;;;;;0.10;0.10;;;13.10;88.50;;;;;;4901079;29;20044;-86
2023/12/12 09:02:46;;;;;;;0.10;0.10;;;13.10;88.70;;;;;;4913798;29;20068;-87
2023/12/12 09:05:13;;;;;;;0.10;0.10;;;13.20;88.70;;;;;;4918360;29;20024;-88
2023/12/12 09:07:39;;;;;;;0.10;0.10;;;13.20;88.70;;;;;;4918420;29;20020;-87
2023/12/12 09:10:06;;;;;;;0.10;0.10;;;13.30;88.60;;;;;;4917668;29;20385;-87
2023/12/12 09:12:32;;;;;;;0.10;0.10;;;13.30;88.50;;;;;;4919543;29;20046;-86
2023/12/12 09:14:58;;;;;;;0.10;0.10;;;13.30;88.30;;;;;;4919847;29;20032;-87
2023/12/12 09:17:23;;;;;;;0.10;0.10;;;13.30;88.30;;;;;;4918632;29;20087;-87
2023/12/12 09:19:49;;;;;;;0.10;0.10;;;13.30;88.10;;;;;;4903878;29;20040;-87
2023/12/12 09:22:14;;;;;;;0.10;0.10;;;13.30;88.00;;;;;;4899222;29;20087;-87
2023/12/12 09:24:40;;;;;;;0.10;0.10;;;13.40;87.90;;;;;;4913955;29;20029;-87
2023/12/12 09:27:06;;;;;;;0.10;0.10;;;13.40;87.70;;;;;;4899196;29;20107;-87
2023/12/12 09:29:31;;;;;;;0.10;0.10;;;13.50;87.60;;;;;;4900365;29;20036;-87
2023/12/12 09:31:57;;;;;;;0.10;0.10;;;13.40;87.30;;;;;;4901602;29;20515;-87
2023/12/12 09:34:23;;;;;;;0.10;0.10;;;13.40;87.40;;;;;;4903539;29;20127;-87
2023/12/12 09:36:50;;;;;;;0.10;0.10;;;13.30;87.00;;;;;;4920690;29;20028;-87
2023/12/12 09:39:16;;;;;;;0.10;0.10;;;13.30;86.90;;;;;;4899596;29;20066;-87
2023/12/12 09:41:46;;;;;;;0.10;0.10;;;13.30;87.10;;;;;;4933480;29;20028;-87
2023/12/12 09:44:15;;;;;;;0.10;0.10;;;13.30;87.10;;;;;;4907306;29;20043;-87
2023/12/12 09:46:42;;;;;;;0.10;0.10;;;13.30;86.90;;;;;;4883799;29;20027;-86
2023/12/12 09:49:09;;;;;;;0.10;0.10;;;13.30;86.60;;;;;;4884706;29;20421;-87
2023/12/12 09:51:35;;;;;;;0.10;0.10;;;13.30;86.90;;;;;;4902827;29;20051;-87
2023/12/12 09:54:06;;;;;;;0.10;0.10;;;13.40;86.80;;;;;;4903814;29;20126;-86
2023/12/12 09:56:34;;;;;;;0.10;0.10;;;13.40;86.70;;;;;;4903490;29;20028;-87
2023/12/12 09:58:59;;;;;;;0.10;0.10;;;13.40;86.70;;;;;;4900571;29;20040;-87
2023/12/12 10:01:26;;;;;;;0.10;0.10;;;13.40;86.60;;;;;;4917845;29;20421;-87
2023/12/12 10:03:54;;;;;;;0.10;0.10;;;13.40;86.60;;;;;;4898679;29;20484;-88
2023/12/12 10:06:21;;;;;;;0.10;0.10;;;13.30;86.70;;;;;;4899035;29;20504;-87
2023/12/12 10:08:47;;;;;;;0.10;0.10;;;13.40;86.70;;;;;;4897961;29;20088;-87
2023/12/12 10:11:14;;;;;;;0.10;0.10;;;13.40;86.70;;;;;;4898818;29;20032;-87
2023/12/12 10:13:54;;;;;;;0.10;0.10;;;13.30;86.70;;;;;;4897809;29;20032;-88
2023/12/12 10:16:20;;;;;;;0.10;0.10;;;13.30;86.90;;;;;;4882149;29;20037;-88
2023/12/12 10:18:50;;;;;;;0.08;0.08;;;13.30;86.60;;;;;;4898736;29;20045;-86
2023/12/12 10:21:19;;;;;;;0.10;0.10;;;13.30;86.70;;;;;;4899896;29;20396;-88
2023/12/12 10:23:47;;;;;;;0.10;0.10;;;13.30;86.70;;;;;;4901818;29;20029;-88
2023/12/12 10:26:13;;;;;;;0.15;0.15;;;13.30;86.70;;;;;;4903020;29;20056;-88
2023/12/12 10:28:39;;;;;;;0.10;0.10;;;13.40;86.80;;;;;;4887613;29;20039;-88
2023/12/12 10:31:09;;;;;;;0.10;0.10;;;13.40;86.50;;;;;;4890255;29;20056;-87
2023/12/12 10:33:35;;;;;;;0.13;0.10;;;13.40;86.70;;;;;;4907393;29;20040;-88
2023/12/12 10:36:07;;;;;;;0.10;0.10;;;13.40;86.60;;;;;;4917079;29;20039;-88
2023/12/12 10:38:35;;;;;;;0.10;0.10;;;13.40;86.50;;;;;;4918326;29;20037;-88
2023/12/12 10:41:20;;;;;;;0.10;0.10;;;13.50;86.70;;;;;;4913888;29;20035;-87
2023/12/12 10:43:47;;;;;;;0.10;0.10;;;13.60;85.90;;;;;;4918031;29;20033;-88
2023/12/12 10:46:14;;;;;;;0.10;0.10;;;13.70;85.60;;;;;;4917023;29;20035;-88
2023/12/12 10:48:52;;;;;;;0.10;0.10;;;13.80;85.30;;;;;;4901332;29;20479;-87
2023/12/12 10:51:18;;;;;;;0.10;0.10;;;13.80;85.00;;;;;;4918593;29;20040;-88
2023/12/12 10:53:46;;;;;;;0.10;0.10;;;13.80;84.80;;;;;;4918083;29;20038;-87
2023/12/12 10:56:13;;;;;;;0.10;0.10;;;13.80;84.60;;;;;;4918051;29;20039;-88
2023/12/12 10:58:41;;;;;;;0.10;0.10;;;13.60;84.80;;;;;;4917996;29;20413;-88
2023/12/12 11:01:09;;;;;;;0.13;0.13;;;13.70;85.10;;;;;;4917212;29;20413;-88
2023/12/12 11:03:36;;;;;;;0.10;0.10;;;13.80;85.00;;;;;;4908428;29;20541;-87
2023/12/12 11:06:03;;;;;;;0.10;0.10;;;13.80;84.40;;;;;;4920954;29;20039;-88
2023/12/12 11:08:30;;;;;;;0.20;0.20;;;13.80;84.10;;;;;;4920450;29;20017;-88
2023/12/12 11:10:56;;;;;;;0.10;0.10;;;13.80;84.00;;;;;;4916790;29;20430;-89
2023/12/12 11:13:32;;;;;;;0.10;0.10;;;14.00;84.00;;;;;;4916660;29;20040;-88
2023/12/12 11:16:00;;;;;;;0.10;0.10;;;14.00;83.80;;;;;;4901932;29;20476;-88
2023/12/12 11:18:26;;;;;;;0.10;0.10;;;14.00;83.70;;;;;;4907226;29;20036;-88
2023/12/12 11:20:51;;;;;;;0.10;0.10;;;14.00;83.80;;;;;;4915989;29;20056;-88
2023/12/12 11:23:42;;;;;;;0.10;0.10;;;14.00;83.40;;;;;;4900520;29;20052;-89
2023/12/12 11:26:09;;;;;;;0.10;0.10;;;14.00;83.10;;;;;;4900462;29;20029;-88
2023/12/12 11:28:36;;;;;;;0.10;0.10;;;14.00;82.20;;;;;;4900719;29;20036;-89
2023/12/12 11:31:02;;;;;;;0.10;0.10;;;14.00;82.60;;;;;;4913650;29;20611;-89
2023/12/12 11:33:34;;;;;;;0.10;0.10;;;14.00;82.30;;;;;;4920799;29;20067;-89
2023/12/12 11:36:00;;;;;;;0.10;0.10;;;14.00;82.20;;;;;;4903487;29;20027;-88
2023/12/12 11:38:31;;;;;;;0.10;0.10;;;14.00;82.10;;;;;;4899322;29;20037;-88
2023/12/12 11:41:14;;;;;;;0.10;0.10;;;14.20;81.90;;;;;;4906268;29;20027;-88
2023/12/12 11:43:41;;;;;;;0.10;0.10;;;14.20;81.90;;;;;;4924563;29;20028;-88
2023/12/12 11:46:18;;;;;;;0.10;0.10;;;14.10;81.60;;;;;;4901208;29;20037;-87
2023/12/12 11:48:44;;;;;;;0.10;0.10;;;14.10;81.30;;;;;;4901361;29;20041;-88
2023/12/12 11:51:34;;;;;;;0.10;0.10;;;14.20;81.50;;;;;;4901529;29;20032;-88
2023/12/12 11:54:04;;;;;;;0.10;0.10;;;14.10;80.90;;;;;;4901415;29;20038;-89
2023/12/12 11:56:30;;;;;;;0.10;0.10;;;14.20;80.90;;;;;;4902244;29;20052;-88
2023/12/12 11:58:56;;;;;;;0.10;0.10;;;14.40;80.60;;;;;;4903861;29;20032;-88
2023/12/12 12:01:23;;;;;;;0.10;0.10;;;14.30;80.40;;;;;;4900196;29;20037;-88
2023/12/12 12:03:49;;;;;;;0.10;0.10;;;14.50;79.90;;;;;;4893003;29;20031;-88
2023/12/12 12:06:15;;;;;;;0.10;0.10;;;14.60;79.70;;;;;;4920686;29;20036;-88
2023/12/12 12:08:41;;;;;;;0.10;0.10;;;14.80;79.00;;;;;;4903995;29;20040;-88
2023/12/12 12:11:06;;;;;;;0.10;0.10;;;14.80;79.00;;;;;;4901347;29;20118;-88
2023/12/12 12:13:39;;;;;;;0.10;0.10;;;15.00;79.10;;;;;;4884297;29;20552;-88
2023/12/12 12:16:05;;;;;;;;;;;15.20;78.50;;;;;;4900289;29;20028;-88
2023/12/12 12:18:31;;;;;;;0.10;0.10;;;15.20;78.50;;;;;;4900673;29;19919;-88
2023/12/12 12:20:58;;;;;;;0.10;0.10;;;15.10;78.70;;;;;;4899580;29;20073;-89
2023/12/12 12:23:24;;;;;;;0.10;0.10;;;15.10;78.60;;;;;;4899003;29;20021;-88
2023/12/12 12:25:50;;;;;;;0.10;0.10;;;15.20;79.00;;;;;;4899618;29;20032;-88
2023/12/12 12:28:16;;;;;;;0.10;0.10;;;15.30;78.50;;;;;;4898382;29;20563;-88
2023/12/12 12:30:46;;;;;;;0.10;0.10;;;15.40;78.70;;;;;;4900846;29;20048;-88
2023/12/12 12:33:13;;;;;;;0.10;0.10;;;15.30;78.40;;;;;;4917618;29;20083;-87
2023/12/12 12:35:50;;;;;;;0.10;0.10;;;15.40;78.90;;;;;;4919664;29;20743;-87
2023/12/12 12:38:31;;;;;;;0.10;0.10;;;15.30;78.60;;;;;;4914499;29;20060;-87
2023/12/12 12:40:57;;;;;;;0.10;0.10;;;15.30;77.90;;;;;;4904152;29;20531;-88
2023/12/12 12:43:23;;;;;;;0.10;0.10;;;15.30;78.30;;;;;;4914685;29;20053;-89
2023/12/12 12:45:50;;;;;;;0.10;0.10;;;15.30;78.30;;;;;;4901547;29;20528;-88
2023/12/12 12:48:16;;;;;;;0.10;0.10;;;15.50;78.00;;;;;;4914868;29;20043;-87
2023/12/12 12:50:43;;;;;;;0.10;0.10;;;15.50;77.70;;;;;;4901871;29;20044;-89
2023/12/12 12:53:10;;;;;;;0.10;0.10;;;15.40;77.30;;;;;;4901049;29;20519;-89
2023/12/12 12:55:37;;;;;;;0.10;0.10;;;15.20;77.50;;;;;;4907989;29;20448;-88
2023/12/12 12:58:04;;;;;;;0.10;0.10;;;15.20;78.00;;;;;;4898743;29;20029;-88
2023/12/12 13:00:29;;;;;;;0.10;0.10;;;15.00;78.80;;;;;;4900573;29;20060;-88
2023/12/12 13:02:56;;;;;;;0.10;0.10;;;14.90;79.90;;;;;;4901979;29;20025;-88
2023/12/12 13:05:22;;;;;;;0.10;0.10;;;14.80;80.00;;;;;;4919962;29;20050;-88
2023/12/12 13:07:48;;;;;;;0.10;0.10;;;14.60;81.50;;;;;;4906388;29;20056;-89
2023/12/12 13:10:15;;;;;;;0.10;0.10;;;14.50;81.80;;;;;;4903284;29;20031;-88
2023/12/12 13:12:42;;;;;;;0.10;0.10;;;14.30;82.00;;;;;;4914532;29;20480;-89
2023/12/12 13:15:09;;;;;;;0.10;0.10;;;14.20;81.90;;;;;;4916663;29;21146;-89
2023/12/12 13:17:35;;;;;;;0.10;0.10;;;14.10;81.90;;;;;;4917524;29;20035;-90
2023/12/12 13:20:09;;;;;;;0.05;0.05;;;14.00;81.30;;;;;;4908137;29;20037;-89
2023/12/12 13:22:44;;;;;;;0.10;0.10;;;14.00;81.80;;;;;;4900067;29;20039;-89
2023/12/12 13:25:11;;;;;;;0.10;0.10;;;14.00;81.60;;;;;;4900386;29;20024;-89
2023/12/12 13:27:38;;;;;;;0.10;0.10;;;14.00;81.20;;;;;;4901550;29;20024;-89
2023/12/12 13:30:05;;;;;;;0.10;0.10;;;13.80;81.00;;;;;;4900292;29;20032;-89
2023/12/12 13:32:35;;;;;;;0.10;0.10;;;13.80;81.40;;;;;;4881294;29;20068;-88
2023/12/12 13:35:01;;;;;;;0.10;0.10;;;13.90;80.70;;;;;;4899334;29;20123;-90
2023/12/12 13:37:26;;;;;;;0.10;0.10;;;14.20;80.60;;;;;;4896065;29;20036;-89
2023/12/12 13:39:52;;;;;;;0.10;0.10;;;14.40;79.90;;;;;;4884260;29;20033;-88
2023/12/12 13:42:18;;;;;;;0.10;0.10;;;14.60;78.20;;;;;;4900794;29;20551;-90
2023/12/12 13:44:43;;;;;;;0.10;0.10;;;14.60;78.40;;;;;;4900038;29;20024;-88
2023/12/12 13:47:09;;;;;;;0.10;0.10;;;14.70;77.90;;;;;;4895413;29;20040;-88
2023/12/12 13:49:34;;;;;;;0.10;0.10;;;14.60;77.20;;;;;;4886715;29;20511;-88
2023/12/12 13:52:01;;;;;;;0.10;0.10;;;14.50;77.50;;;;;;4901915;29;20028;-89
2023/12/12 13:54:26;;;;;;;0.10;0.10;;;14.50;77.50;;;;;;4896301;29;20048;-88
2023/12/12 13:56:52;;;;;;;0.10;0.10;;;14.40;78.00;;;;;;4882000;29;20033;-88
2023/12/12 13:59:18;;;;;;;0.10;0.10;;;14.30;78.10;;;;;;4885300;29;20047;-88
2023/12/12 14:01:44;;;;;;;0.10;0.10;;;14.20;78.20;;;;;;4889572;29;20489;-88
2023/12/12 14:04:09;;;;;;;0.10;0.10;;;14.30;78.20;;;;;;4884090;29;20512;-88
2023/12/12 14:06:35;;;;;;;0.10;0.10;;;14.30;78.50;;;;;;4881144;29;20132;-88
2023/12/12 14:09:00;;;;;;;0.10;0.10;;;14.20;78.60;;;;;;4882021;29;20029;-89
2023/12/12 14:11:26;;;;;;;0.10;0.10;;;14.20;79.00;;;;;;4891334;29;20048;-89
2023/12/12 14:13:52;;;;;;;0.10;0.10;;;14.30;78.80;;;;;;4881852;29;20036;-88
2023/12/12 14:16:18;;;;;;;0.10;0.10;;;14.20;78.90;;;;;;4882687;29;20060;-89
2023/12/12 14:18:43;;;;;;;0.10;0.10;;;14.20;78.70;;;;;;4880434;29;20029;-88
2023/12/12 14:21:12;;;;;;;0.10;0.10;;;14.30;78.90;;;;;;4896294;29;20054;-89
2023/12/12 14:23:41;;;;;;;0.10;0.10;;;14.20;78.60;;;;;;4881852;29;20029;-88
2023/12/12 14:26:07;;;;;;;0.10;0.10;;;14.10;78.40;;;;;;4881935;29;20029;-89
2023/12/12 14:28:33;;;;;;;0.10;0.10;;;14.00;78.50;;;;;;4880053;29;20033;-89
2023/12/12 14:30:59;;;;;;;0.10;0.10;;;14.00;78.90;;;;;;4883802;29;20428;-89
2023/12/12 14:33:24;;;;;;;0.10;0.10;;;14.00;78.30;;;;;;4888239;29;20051;-89
2023/12/12 14:35:50;;;;;;;0.10;0.10;;;14.00;78.80;;;;;;4919214;29;20472;-89
2023/12/12 14:38:16;;;;;;;0.10;0.10;;;14.00;78.90;;;;;;4891963;29;20024;-89
2023/12/12 14:40:43;;;;;;;0.10;0.10;;;14.00;79.10;;;;;;4917638;29;20063;-88
2023/12/12 14:43:09;;;;;;;0.10;0.10;;;14.00;78.50;;;;;;4895602;29;20120;-89
2023/12/12 14:45:35;;;;;;;0.10;0.10;;;14.00;78.60;;;;;;4902286;29;20120;-89
2023/12/12 14:48:00;;;;;;;0.10;0.10;;;14.00;78.10;;;;;;4898411;29;20089;-87
2023/12/12 14:50:26;;;;;;;0.10;0.10;;;13.90;78.60;;;;;;4898926;29;20032;-89
2023/12/12 14:52:53;;;;;;;0.10;0.10;;;13.90;78.80;;;;;;4900629;29;20072;-89
2023/12/12 14:55:18;;;;;;;0.10;0.10;;;13.90;78.40;;;;;;4899768;29;20036;-89
2023/12/12 14:57:45;;;;;;;0.10;0.10;;;13.90;78.50;;;;;;4896760;29;20033;-88
2023/12/12 15:00:13;;;;;;;0.10;0.10;;;13.80;78.40;;;;;;4901508;29;20028;-89
2023/12/12 15:02:39;;;;;;;0.10;0.10;;;13.80;78.50;;;;;;4920015;29;20024;-88
2023/12/12 15:05:05;;;;;;;0.10;0.10;;;13.70;78.70;;;;;;4906294;29;20104;-89
2023/12/12 15:07:31;;;;;;;0.00;0.00;;;13.70;78.70;;;;;;4886057;29;20024;-89
2023/12/12 15:09:56;;;;;;;0.10;0.10;;;13.60;78.70;;;;;;4886681;29;20056;-89
2023/12/12 15:12:22;;;;;;;0.10;0.10;;;13.70;78.80;;;;;;4887628;29;20036;-89
2023/12/12 15:14:48;;;;;;;0.10;0.10;;;13.60;78.90;;;;;;4906130;29;20043;-90
2023/12/12 15:17:14;;;;;;;0.10;0.10;;;13.60;79.20;;;;;;4924137;29;20403;-88
2023/12/12 15:19:41;;;;;;;0.10;0.10;;;13.70;79.20;;;;;;4909029;29;20048;-88
2023/12/12 15:22:06;;;;;;;0.10;0.10;;;13.70;78.90;;;;;;4902961;29;20062;-88
2023/12/12 15:24:32;;;;;;;0.10;0.10;;;13.80;79.30;;;;;;4901914;29;20028;-89
2023/12/12 15:26:58;;;;;;;0.10;0.10;;;13.70;79.50;;;;;;4901391;29;20080;-88
2023/12/12 15:29:24;;;;;;;0.10;0.10;;;13.70;79.50;;;;;;4886555;29;20025;-89
2023/12/12 15:31:49;;;;;;;0.10;0.10;;;13.50;79.50;;;;;;4898466;29;20412;-89
2023/12/12 15:34:15;;;;;;;0.10;0.10;;;13.40;79.70;;;;;;4914233;29;20036;-89
2023/12/12 15:36:41;;;;;;;0.10;0.10;;;13.30;80.10;;;;;;4920961;29;20065;-88
2023/12/12 15:39:06;;;;;;;0.10;0.10;;;13.20;80.20;;;;;;4921302;29;20036;-88
2023/12/12 15:41:33;;;;;;;0.10;0.10;;;13.20;80.00;;;;;;4919623;29;20039;-88
2023/12/12 15:43:59;;;;;;;0.10;0.10;;;13.20;80.10;;;;;;4920930;29;20480;-89
2023/12/12 15:46:25;;;;;;;0.10;0.10;;;13.10;79.90;;;;;;4916938;29;20021;-89
2023/12/12 15:48:51;;;;;;;0.10;0.10;;;13.10;80.00;;;;;;4903172;29;20036;-88
2023/12/12 15:51:16;;;;;;;0.10;0.10;;;13.00;79.70;;;;;;4917785;29;20025;-89
2023/12/12 15:53:42;;;;;;;0.10;0.10;;;13.00;80.10;;;;;;4917941;29;20037;-89
2023/12/12 15:56:11;;;;;;;0.10;0.10;;;13.00;79.80;;;;;;4905470;29;20507;-88
2023/12/12 15:58:39;;;;;;;0.10;0.10;;;12.90;79.80;;;;;;4920412;29;20028;-88
2023/12/12 16:01:09;;;;;;;0.10;0.10;;;12.90;79.70;;;;;;4917783;29;20079;-88
2023/12/12 16:03:35;;;;;;;0.10;0.10;;;12.80;79.90;;;;;;4908515;29;20127;-89
2023/12/12 16:06:01;;;;;;;0.10;0.10;;;12.80;79.90;;;;;;4922885;29;20062;-89
2023/12/12 16:08:27;;;;;;;0.10;0.10;;;12.80;80.20;;;;;;4921821;29;20055;-89
2023/12/12 16:10:54;;;;;;;0.10;0.10;;;12.80;80.20;;;;;;4920175;29;20036;-89
2023/12/12 16:13:20;;;;;;;0.10;0.10;;;12.80;80.60;;;;;;4920609;29;20036;-89
2023/12/12 16:15:46;;;;;;;0.10;0.10;;;12.70;80.70;;;;;;4920624;29;20024;-89
2023/12/12 16:18:11;;;;;;;0.10;0.10;;;12.70;80.90;;;;;;4902352;29;20040;-89
2023/12/12 16:20:37;;;;;;;0.10;0.10;;;12.80;81.10;;;;;;4903354;29;20029;-89
2023/12/12 16:23:02;;;;;;;0.10;0.10;;;12.80;81.00;;;;;;4918433;29;20056;-89
2023/12/12 16:25:28;;;;;;;0.10;0.10;;;12.80;80.80;;;;;;4903756;29;20096;-88
2023/12/12 16:27:56;;;;;;;0.10;0.10;;;12.80;80.70;;;;;;4902534;29;20037;-90
2023/12/12 16:30:21;;;;;;;0.10;0.10;;;12.90;80.70;;;;;;4915738;29;20092;-89
2023/12/12 16:32:52;;;;;;;0.10;0.10;;;12.80;80.50;;;;;;4901268;29;20531;-89
2023/12/12 16:35:18;;;;;;;0.10;0.10;;;12.80;80.50;;;;;;4886529;29;20029;-89
2023/12/12 16:37:47;;;;;;;0.10;0.10;;;12.80;80.60;;;;;;4905468;29;20034;-88
2023/12/12 16:40:13;;;;;;;0.10;0.10;;;12.70;80.50;;;;;;4908388;29;20031;-88
2023/12/12 16:42:40;;;;;;;0.10;0.10;;;12.70;80.60;;;;;;4922229;29;20111;-88
2023/12/12 16:45:06;;;;;;;0.10;0.10;;;12.60;80.70;;;;;;4902936;29;20035;-84
2023/12/12 16:47:31;;;;;;;0.10;0.10;;;12.50;80.80;;;;;;4908825;29;20026;-84
2023/12/12 16:49:57;;;;;;;0.10;0.10;;;12.50;81.00;;;;;;4902383;29;20068;-81
2023/12/12 16:52:23;;;;;;;0.10;0.10;;;12.50;81.10;;;;;;4914872;29;20092;-82
2023/12/12 16:54:50;;;;;;;0.10;0.10;;;12.40;81.30;;;;;;4919729;29;20108;-84
2023/12/12 16:57:16;;;;;;;0.10;0.10;;;12.40;81.50;;;;;;4916560;29;20051;-85
2023/12/12 16:59:42;;;;;;;0.10;0.10;;;12.40;81.80;;;;;;4918354;29;20036;-83
2023/12/12 17:02:07;;;;;;;0.10;0.10;;;12.30;81.70;;;;;;4917133;29;20503;-84
2023/12/12 17:04:33;;;;;;;0.10;0.10;;;12.30;82.10;;;;;;4911322;29;20107;-83
2023/12/12 17:06:59;;;;;;;0.10;0.10;;;12.30;82.10;;;;;;4901779;29;20025;-85
2023/12/12 17:09:25;;;;;;;0.10;0.10;;;12.30;82.30;;;;;;4913313;29;20040;-86
2023/12/12 17:11:51;;;;;;;0.10;0.10;;;12.40;82.20;;;;;;4914046;29;20034;-85
2023/12/12 17:14:17;;;;;;;0.10;0.10;;;12.50;82.20;;;;;;4889601;29;20119;-84
2023/12/12 17:16:43;;;;;;;0.10;0.10;;;12.50;82.20;;;;;;4915366;29;20028;-86
2023/12/12 17:19:09;;;;;;;0.10;0.10;;;12.50;83.00;;;;;;4905817;29;20073;-81
2023/12/12 17:21:35;;;;;;;0.10;0.10;;;12.50;83.60;;;;;;4901565;29;20095;-84
2023/12/12 17:24:00;;;;;;;0.10;0.10;;;12.40;84.10;;;;;;4914500;29;20531;-84
2023/12/12 17:26:26;;;;;;;0.10;0.10;;;12.30;84.70;;;;;;4916235;29;20038;-86
2023/12/12 17:28:52;;;;;;;0.10;0.10;;;12.30;84.90;;;;;;4902732;29;21302;-85
2023/12/12 17:31:17;;;;;;;0.10;0.10;;;12.30;85.10;;;;;;4907831;29;20079;-86
2023/12/12 17:33:43;;;;;;;0.10;0.10;;;12.30;85.00;;;;;;4928666;29;20479;-84
2023/12/12 17:36:09;;;;;;;0.03;0.03;;;12.30;84.90;;;;;;4923388;29;20041;-87
2023/12/12 17:38:36;;;;;;;0.10;0.10;;;12.20;84.70;;;;;;4916864;29;20024;-83
2023/12/12 17:41:02;;;;;;;0.10;0.10;;;12.30;84.80;;;;;;4926166;29;20100;-82
2023/12/12 17:43:27;;;;;;;0.10;0.10;;;12.30;84.90;;;;;;4916754;29;20503;-80
2023/12/12 17:45:53;;;;;;;0.10;0.10;;;12.20;84.80;;;;;;4911256;29;20023;-81
2023/12/12 17:48:19;;;;;;;0.10;0.10;;;12.30;84.60;;;;;;4917646;29;20111;-81
2023/12/12 17:50:46;;;;;;;0.10;0.10;;;12.30;84.60;;;;;;4914928;29;20811;-80
2023/12/12 17:53:14;;;;;;;0.10;0.10;;;12.20;84.60;;;;;;4917382;29;20496;-79
2023/12/12 17:55:41;;;;;;;0.10;0.10;;;12.20;84.40;;;;;;4916449;29;20040;-82
2023/12/12 17:58:06;;;;;;;0.10;0.10;;;12.20;84.50;;;;;;4914818;29;20060;-80
2023/12/12 18:00:32;;;;;;;0.10;0.10;;;12.20;84.50;;;;;;4912098;29;20032;-80
2023/12/12 18:02:58;;;;;;;0.10;0.10;;;12.20;84.40;;;;;;4911534;29;20183;-81
2023/12/12 18:05:28;;;;;;;0.10;0.10;;;12.20;84.40;;;;;;4912971;29;20547;-81
2023/12/12 18:07:54;;;;;;;0.10;0.10;;;12.10;84.50;;;;;;4913591;29;20551;-81
2023/12/12 18:10:19;;;;;;;0.10;0.10;;;12.00;84.30;;;;;;4917594;29;20123;-80
2023/12/12 18:12:45;;;;;;;0.10;0.10;;;11.90;84.50;;;;;;4911796;29;20562;-79
2023/12/12 18:15:11;;;;;;;0.10;0.10;;;11.90;84.40;;;;;;4913894;29;21410;-80